sensor_id;sensor_type;location;lat;lon;timestamp;P1;durP1;ratioP1;P2;durP2;ratioP2
37241;SDS011;23135;51.078;12.108;2023-07-16T00:00:50;8.88;;;4.18;;
37241;SDS011;23135;51.078;12.108;2023-07-16T00:03:16;5.60;;;3.40;;
37241;SDS011;23135;51.078;12.108;2023-07-16T00:05:42;5.55;;;2.40;;
37241;SDS011;23135;51.078;12.108;2023-07-16T00:08:08;4.32;;;2.67;;
37241;SDS011;23135;51.078;12.108;2023-07-16T00:10:37;9.55;;;2.63;;
37241;SDS011;23135;51.078;12.108;2023-07-16T00:13:03;5.05;;;2.22;;
37241;SDS011;23135;51.078;12.108;2023-07-16T00:15:29;3.05;;;1.95;;
37241;SDS011;23135;51.078;12.108;2023-07-16T00:17:55;5.75;;;2.00;;
37241;SDS011;23135;51.078;12.108;2023-07-16T00:20:21;3.92;;;1.83;;
37241;SDS011;23135;51.078;12.108;2023-07-16T00:22:48;5.60;;;2.50;;
37241;SDS011;23135;51.078;12.108;2023-07-16T00:25:14;6.93;;;3.13;;
37241;SDS011;23135;51.078;12.108;2023-07-16T00:27:40;5.05;;;2.45;;
37241;SDS011;23135;51.078;12.108;2023-07-16T00:30:07;5.10;;;2.45;;
37241;SDS011;23135;51.078;12.108;2023-07-16T00:32:33;7.15;;;3.47;;
37241;SDS011;23135;51.078;12.108;2023-07-16T00:35:00;8.73;;;2.45;;
37241;SDS011;23135;51.078;12.108;2023-07-16T00:37:26;3.42;;;2.30;;
37241;SDS011;23135;51.078;12.108;2023-07-16T00:39:51;4.72;;;2.70;;
37241;SDS011;23135;51.078;12.108;2023-07-16T00:42:17;6.13;;;2.88;;
37241;SDS011;23135;51.078;12.108;2023-07-16T00:44:43;9.73;;;3.08;;
37241;SDS011;23135;51.078;12.108;2023-07-16T00:47:08;8.13;;;3.20;;
37241;SDS011;23135;51.078;12.108;2023-07-16T00:49:34;4.65;;;2.70;;
37241;SDS011;23135;51.078;12.108;2023-07-16T00:52:01;4.07;;;2.38;;
37241;SDS011;23135;51.078;12.108;2023-07-16T00:54:28;7.93;;;3.13;;
37241;SDS011;23135;51.078;12.108;2023-07-16T00:56:55;4.93;;;2.80;;
37241;SDS011;23135;51.078;12.108;2023-07-16T00:59:20;12.43;;;3.80;;
37241;SDS011;23135;51.078;12.108;2023-07-16T01:01:46;8.70;;;3.10;;
37241;SDS011;23135;51.078;12.108;2023-07-16T01:04:12;7.53;;;3.35;;
37241;SDS011;23135;51.078;12.108;2023-07-16T01:06:38;3.80;;;2.63;;
37241;SDS011;23135;51.078;12.108;2023-07-16T01:09:18;7.28;;;3.03;;
37241;SDS011;23135;51.078;12.108;2023-07-16T01:11:46;8.93;;;3.10;;
37241;SDS011;23135;51.078;12.108;2023-07-16T01:14:13;5.95;;;2.72;;
37241;SDS011;23135;51.078;12.108;2023-07-16T01:16:41;5.50;;;2.38;;
37241;SDS011;23135;51.078;12.108;2023-07-16T01:19:07;5.70;;;2.47;;
37241;SDS011;23135;51.078;12.108;2023-07-16T01:21:35;5.65;;;2.95;;
37241;SDS011;23135;51.078;12.108;2023-07-16T01:27:50;3.40;;;2.50;;
37241;SDS011;23135;51.078;12.108;2023-07-16T01:30:05;4.68;;;2.15;;
37241;SDS011;23135;51.078;12.108;2023-07-16T01:32:36;2.88;;;2.60;;
37241;SDS011;23135;51.078;12.108;2023-07-16T01:35:03;9.50;;;2.38;;
37241;SDS011;23135;51.078;12.108;2023-07-16T01:37:30;4.35;;;2.92;;
37241;SDS011;23135;51.078;12.108;2023-07-16T01:39:56;2.40;;;2.17;;
37241;SDS011;23135;51.078;12.108;2023-07-16T01:42:22;5.03;;;2.00;;
37241;SDS011;23135;51.078;12.108;2023-07-16T01:44:48;8.68;;;1.55;;
37241;SDS011;23135;51.078;12.108;2023-07-16T01:47:39;5.43;;;2.25;;
37241;SDS011;23135;51.078;12.108;2023-07-16T01:50:17;5.93;;;1.65;;
37241;SDS011;23135;51.078;12.108;2023-07-16T01:52:42;5.15;;;1.50;;
37241;SDS011;23135;51.078;12.108;2023-07-16T01:55:08;5.35;;;1.63;;
37241;SDS011;23135;51.078;12.108;2023-07-16T01:57:34;2.88;;;2.15;;
37241;SDS011;23135;51.078;12.108;2023-07-16T01:59:59;4.00;;;1.42;;
37241;SDS011;23135;51.078;12.108;2023-07-16T02:02:25;2.90;;;2.13;;
37241;SDS011;23135;51.078;12.108;2023-07-16T02:04:50;3.17;;;1.55;;
37241;SDS011;23135;51.078;12.108;2023-07-16T02:07:16;11.05;;;1.80;;
37241;SDS011;23135;51.078;12.108;2023-07-16T02:09:42;3.85;;;1.30;;
37241;SDS011;23135;51.078;12.108;2023-07-16T02:12:07;8.00;;;1.88;;
37241;SDS011;23135;51.078;12.108;2023-07-16T02:14:33;3.15;;;1.70;;
37241;SDS011;23135;51.078;12.108;2023-07-16T02:16:58;3.92;;;1.90;;
37241;SDS011;23135;51.078;12.108;2023-07-16T02:19:24;6.90;;;1.98;;
37241;SDS011;23135;51.078;12.108;2023-07-16T02:21:51;2.15;;;1.95;;
37241;SDS011;23135;51.078;12.108;2023-07-16T02:24:16;4.15;;;1.98;;
37241;SDS011;23135;51.078;12.108;2023-07-16T02:26:42;5.22;;;1.73;;
37241;SDS011;23135;51.078;12.108;2023-07-16T02:29:07;8.90;;;1.60;;
37241;SDS011;23135;51.078;12.108;2023-07-16T02:31:34;1.83;;;1.20;;
37241;SDS011;23135;51.078;12.108;2023-07-16T02:33:59;1.67;;;1.58;;
37241;SDS011;23135;51.078;12.108;2023-07-16T02:36:25;3.83;;;1.30;;
37241;SDS011;23135;51.078;12.108;2023-07-16T02:38:51;3.78;;;1.77;;
37241;SDS011;23135;51.078;12.108;2023-07-16T02:41:16;1.27;;;1.13;;
37241;SDS011;23135;51.078;12.108;2023-07-16T02:43:42;2.35;;;1.13;;
37241;SDS011;23135;51.078;12.108;2023-07-16T02:46:10;2.58;;;1.25;;
37241;SDS011;23135;51.078;12.108;2023-07-16T02:48:35;5.20;;;1.45;;
37241;SDS011;23135;51.078;12.108;2023-07-16T02:51:01;2.47;;;1.05;;
37241;SDS011;23135;51.078;12.108;2023-07-16T02:53:27;2.70;;;2.05;;
37241;SDS011;23135;51.078;12.108;2023-07-16T02:55:52;8.93;;;1.40;;
37241;SDS011;23135;51.078;12.108;2023-07-16T02:58:18;5.72;;;1.00;;
37241;SDS011;23135;51.078;12.108;2023-07-16T03:00:43;3.05;;;0.80;;
37241;SDS011;23135;51.078;12.108;2023-07-16T03:03:09;5.35;;;2.05;;
37241;SDS011;23135;51.078;12.108;2023-07-16T03:05:34;4.95;;;0.95;;
37241;SDS011;23135;51.078;12.108;2023-07-16T03:08:00;2.13;;;0.70;;
37241;SDS011;23135;51.078;12.108;2023-07-16T03:10:26;5.05;;;1.15;;
37241;SDS011;23135;51.078;12.108;2023-07-16T03:12:52;3.58;;;0.80;;
37241;SDS011;23135;51.078;12.108;2023-07-16T03:15:18;2.10;;;1.17;;
37241;SDS011;23135;51.078;12.108;2023-07-16T03:17:43;1.75;;;0.63;;
37241;SDS011;23135;51.078;12.108;2023-07-16T03:20:09;5.18;;;0.80;;
37241;SDS011;23135;51.078;12.108;2023-07-16T03:22:35;2.45;;;0.93;;
37241;SDS011;23135;51.078;12.108;2023-07-16T03:25:00;3.10;;;1.08;;
37241;SDS011;23135;51.078;12.108;2023-07-16T03:27:27;5.57;;;1.05;;
37241;SDS011;23135;51.078;12.108;2023-07-16T03:29:53;4.30;;;1.15;;
37241;SDS011;23135;51.078;12.108;2023-07-16T03:32:19;6.35;;;1.02;;
37241;SDS011;23135;51.078;12.108;2023-07-16T03:34:45;2.85;;;0.50;;
37241;SDS011;23135;51.078;12.108;2023-07-16T03:37:10;5.88;;;0.90;;
37241;SDS011;23135;51.078;12.108;2023-07-16T03:39:36;3.00;;;0.60;;
37241;SDS011;23135;51.078;12.108;2023-07-16T03:42:01;3.28;;;0.60;;
37241;SDS011;23135;51.078;12.108;2023-07-16T03:44:28;3.33;;;0.80;;
37241;SDS011;23135;51.078;12.108;2023-07-16T03:46:54;7.63;;;0.63;;
37241;SDS011;23135;51.078;12.108;2023-07-16T03:52:06;4.05;;;0.90;;
37241;SDS011;23135;51.078;12.108;2023-07-16T03:54:32;6.43;;;0.70;;
37241;SDS011;23135;51.078;12.108;2023-07-16T03:56:57;5.80;;;1.13;;
37241;SDS011;23135;51.078;12.108;2023-07-16T03:59:23;3.05;;;0.73;;
37241;SDS011;23135;51.078;12.108;2023-07-16T04:01:49;8.18;;;0.63;;
37241;SDS011;23135;51.078;12.108;2023-07-16T04:04:14;3.83;;;0.38;;
37241;SDS011;23135;51.078;12.108;2023-07-16T04:06:40;3.08;;;0.20;;
37241;SDS011;23135;51.078;12.108;2023-07-16T04:09:05;1.08;;;0.47;;
37241;SDS011;23135;51.078;12.108;2023-07-16T04:11:31;3.05;;;0.60;;
37241;SDS011;23135;51.078;12.108;2023-07-16T04:13:56;1.15;;;0.85;;
37241;SDS011;23135;51.078;12.108;2023-07-16T04:16:22;3.00;;;0.60;;
37241;SDS011;23135;51.078;12.108;2023-07-16T04:18:47;1.38;;;0.25;;
37241;SDS011;23135;51.078;12.108;2023-07-16T04:21:13;5.32;;;0.95;;
37241;SDS011;23135;51.078;12.108;2023-07-16T04:23:39;4.95;;;0.47;;
37241;SDS011;23135;51.078;12.108;2023-07-16T04:26:04;1.83;;;0.20;;
37241;SDS011;23135;51.078;12.108;2023-07-16T04:28:30;2.40;;;0.70;;
37241;SDS011;23135;51.078;12.108;2023-07-16T04:30:55;2.72;;;0.50;;
37241;SDS011;23135;51.078;12.108;2023-07-16T04:33:21;3.70;;;0.32;;
37241;SDS011;23135;51.078;12.108;2023-07-16T04:35:46;9.30;;;0.47;;
37241;SDS011;23135;51.078;12.108;2023-07-16T04:38:12;3.45;;;1.10;;
37241;SDS011;23135;51.078;12.108;2023-07-16T04:40:37;5.00;;;0.55;;
37241;SDS011;23135;51.078;12.108;2023-07-16T04:43:03;0.32;;;0.22;;
37241;SDS011;23135;51.078;12.108;2023-07-16T04:45:29;3.03;;;0.52;;
37241;SDS011;23135;51.078;12.108;2023-07-16T04:47:54;1.48;;;0.30;;
37241;SDS011;23135;51.078;12.108;2023-07-16T04:50:20;2.45;;;0.22;;
37241;SDS011;23135;51.078;12.108;2023-07-16T04:52:45;1.85;;;0.20;;
37241;SDS011;23135;51.078;12.108;2023-07-16T04:55:11;5.35;;;1.92;;
37241;SDS011;23135;51.078;12.108;2023-07-16T04:57:37;4.30;;;0.50;;
37241;SDS011;23135;51.078;12.108;2023-07-16T05:00:03;0.35;;;0.35;;
37241;SDS011;23135;51.078;12.108;2023-07-16T05:02:31;1.88;;;0.43;;
37241;SDS011;23135;51.078;12.108;2023-07-16T05:04:56;1.10;;;0.10;;
37241;SDS011;23135;51.078;12.108;2023-07-16T05:07:22;3.30;;;0.10;;
37241;SDS011;23135;51.078;12.108;2023-07-16T05:09:47;0.10;;;0.03;;
37241;SDS011;23135;51.078;12.108;2023-07-16T05:12:13;1.77;;;0.40;;
37241;SDS011;23135;51.078;12.108;2023-07-16T05:14:46;4.57;;;0.10;;
37241;SDS011;23135;51.078;12.108;2023-07-16T05:17:13;2.38;;;0.57;;
37241;SDS011;23135;51.078;12.108;2023-07-16T05:19:39;5.38;;;0.60;;
37241;SDS011;23135;51.078;12.108;2023-07-16T05:22:05;1.27;;;0.30;;
37241;SDS011;23135;51.078;12.108;2023-07-16T05:24:31;2.10;;;0.20;;
37241;SDS011;23135;51.078;12.108;2023-07-16T05:26:57;5.07;;;0.10;;
37241;SDS011;23135;51.078;12.108;2023-07-16T05:29:23;0.80;;;0.20;;
37241;SDS011;23135;51.078;12.108;2023-07-16T05:31:48;1.65;;;0.17;;
37241;SDS011;23135;51.078;12.108;2023-07-16T05:34:14;3.00;;;0.17;;
37241;SDS011;23135;51.078;12.108;2023-07-16T05:36:41;1.27;;;0.10;;
37241;SDS011;23135;51.078;12.108;2023-07-16T05:39:09;1.00;;;0.30;;
37241;SDS011;23135;51.078;12.108;2023-07-16T05:41:37;1.60;;;0.13;;
37241;SDS011;23135;51.078;12.108;2023-07-16T05:44:04;3.50;;;0.45;;
37241;SDS011;23135;51.078;12.108;2023-07-16T05:46:29;2.38;;;0.10;;
37241;SDS011;23135;51.078;12.108;2023-07-16T05:48:55;2.08;;;1.10;;
37241;SDS011;23135;51.078;12.108;2023-07-16T05:51:21;1.00;;;0.00;;
37241;SDS011;23135;51.078;12.108;2023-07-16T05:53:46;0.40;;;0.10;;
37241;SDS011;23135;51.078;12.108;2023-07-16T05:56:12;0.10;;;0.10;;
37241;SDS011;23135;51.078;12.108;2023-07-16T05:58:39;0.63;;;0.20;;
37241;SDS011;23135;51.078;12.108;2023-07-16T06:01:05;3.25;;;0.10;;
37241;SDS011;23135;51.078;12.108;2023-07-16T06:03:30;1.45;;;0.08;;
37241;SDS011;23135;51.078;12.108;2023-07-16T06:05:56;0.88;;;0.10;;
37241;SDS011;23135;51.078;12.108;2023-07-16T06:08:22;1.65;;;0.10;;
37241;SDS011;23135;51.078;12.108;2023-07-16T06:10:49;0.45;;;0.17;;
37241;SDS011;23135;51.078;12.108;2023-07-16T06:13:15;4.43;;;0.30;;
37241;SDS011;23135;51.078;12.108;2023-07-16T06:15:41;2.72;;;0.10;;
37241;SDS011;23135;51.078;12.108;2023-07-16T06:18:07;6.63;;;0.73;;
37241;SDS011;23135;51.078;12.108;2023-07-16T06:20:32;1.05;;;0.20;;
37241;SDS011;23135;51.078;12.108;2023-07-16T06:22:58;2.88;;;0.03;;
37241;SDS011;23135;51.078;12.108;2023-07-16T06:25:23;4.20;;;0.35;;
37241;SDS011;23135;51.078;12.108;2023-07-16T06:27:49;6.78;;;0.90;;
37241;SDS011;23135;51.078;12.108;2023-07-16T06:30:15;4.50;;;0.15;;
37241;SDS011;23135;51.078;12.108;2023-07-16T06:32:40;1.60;;;0.00;;
37241;SDS011;23135;51.078;12.108;2023-07-16T06:35:06;5.38;;;0.63;;
37241;SDS011;23135;51.078;12.108;2023-07-16T06:37:32;3.45;;;0.13;;
37241;SDS011;23135;51.078;12.108;2023-07-16T06:39:58;0.10;;;0.05;;
37241;SDS011;23135;51.078;12.108;2023-07-16T06:42:23;2.85;;;0.10;;
37241;SDS011;23135;51.078;12.108;2023-07-16T06:44:49;2.20;;;0.17;;
37241;SDS011;23135;51.078;12.108;2023-07-16T06:47:14;2.05;;;0.10;;
37241;SDS011;23135;51.078;12.108;2023-07-16T06:49:40;6.35;;;0.30;;
37241;SDS011;23135;51.078;12.108;2023-07-16T06:52:06;0.80;;;0.10;;
37241;SDS011;23135;51.078;12.108;2023-07-16T06:54:32;1.95;;;0.57;;
37241;SDS011;23135;51.078;12.108;2023-07-16T06:56:57;3.17;;;0.10;;
37241;SDS011;23135;51.078;12.108;2023-07-16T06:59:23;4.47;;;0.20;;
37241;SDS011;23135;51.078;12.108;2023-07-16T07:01:49;2.28;;;0.45;;
37241;SDS011;23135;51.078;12.108;2023-07-16T07:04:14;3.25;;;0.38;;
37241;SDS011;23135;51.078;12.108;2023-07-16T07:06:40;0.45;;;0.00;;
37241;SDS011;23135;51.078;12.108;2023-07-16T07:09:05;0.57;;;0.25;;
37241;SDS011;23135;51.078;12.108;2023-07-16T07:11:31;2.25;;;0.10;;
37241;SDS011;23135;51.078;12.108;2023-07-16T07:13:57;3.85;;;0.10;;
37241;SDS011;23135;51.078;12.108;2023-07-16T07:16:22;2.03;;;0.17;;
37241;SDS011;23135;51.078;12.108;2023-07-16T07:18:48;0.35;;;0.05;;
37241;SDS011;23135;51.078;12.108;2023-07-16T07:21:14;3.80;;;0.65;;
37241;SDS011;23135;51.078;12.108;2023-07-16T07:23:40;1.05;;;0.10;;
37241;SDS011;23135;51.078;12.108;2023-07-16T07:26:05;4.43;;;0.00;;
37241;SDS011;23135;51.078;12.108;2023-07-16T07:28:31;4.47;;;0.10;;
37241;SDS011;23135;51.078;12.108;2023-07-16T07:30:57;3.03;;;0.10;;
37241;SDS011;23135;51.078;12.108;2023-07-16T07:33:22;3.00;;;0.43;;
37241;SDS011;23135;51.078;12.108;2023-07-16T07:35:48;6.13;;;0.15;;
37241;SDS011;23135;51.078;12.108;2023-07-16T07:38:13;2.70;;;0.30;;
37241;SDS011;23135;51.078;12.108;2023-07-16T07:40:39;2.95;;;0.15;;
37241;SDS011;23135;51.078;12.108;2023-07-16T07:43:08;2.83;;;0.38;;
37241;SDS011;23135;51.078;12.108;2023-07-16T07:45:34;2.20;;;0.15;;
37241;SDS011;23135;51.078;12.108;2023-07-16T07:47:59;1.65;;;0.30;;
37241;SDS011;23135;51.078;12.108;2023-07-16T07:50:25;0.75;;;0.10;;
37241;SDS011;23135;51.078;12.108;2023-07-16T07:52:51;1.48;;;0.00;;
37241;SDS011;23135;51.078;12.108;2023-07-16T07:55:16;4.18;;;0.13;;
37241;SDS011;23135;51.078;12.108;2023-07-16T07:57:42;3.13;;;0.10;;
37241;SDS011;23135;51.078;12.108;2023-07-16T08:00:07;5.10;;;0.17;;
37241;SDS011;23135;51.078;12.108;2023-07-16T08:02:37;2.22;;;0.10;;
37241;SDS011;23135;51.078;12.108;2023-07-16T08:05:03;1.35;;;0.08;;
37241;SDS011;23135;51.078;12.108;2023-07-16T08:07:29;2.95;;;0.08;;
37241;SDS011;23135;51.078;12.108;2023-07-16T08:09:54;2.25;;;0.10;;
37241;SDS011;23135;51.078;12.108;2023-07-16T08:12:20;3.38;;;0.10;;
37241;SDS011;23135;51.078;12.108;2023-07-16T08:14:45;1.02;;;0.10;;
37241;SDS011;23135;51.078;12.108;2023-07-16T08:17:12;1.02;;;0.30;;
37241;SDS011;23135;51.078;12.108;2023-07-16T08:19:38;3.92;;;0.40;;
37241;SDS011;23135;51.078;12.108;2023-07-16T08:22:03;1.35;;;0.20;;
37241;SDS011;23135;51.078;12.108;2023-07-16T08:24:30;2.90;;;0.20;;
37241;SDS011;23135;51.078;12.108;2023-07-16T08:26:55;1.42;;;0.32;;
37241;SDS011;23135;51.078;12.108;2023-07-16T08:29:21;2.78;;;0.10;;
37241;SDS011;23135;51.078;12.108;2023-07-16T08:31:47;1.92;;;0.00;;
37241;SDS011;23135;51.078;12.108;2023-07-16T08:34:12;1.50;;;0.10;;
37241;SDS011;23135;51.078;12.108;2023-07-16T08:36:38;3.33;;;0.30;;
37241;SDS011;23135;51.078;12.108;2023-07-16T08:39:04;2.90;;;0.25;;
37241;SDS011;23135;51.078;12.108;2023-07-16T08:41:30;4.28;;;0.22;;
37241;SDS011;23135;51.078;12.108;2023-07-16T08:43:56;0.52;;;0.10;;
37241;SDS011;23135;51.078;12.108;2023-07-16T08:46:22;2.85;;;0.17;;
37241;SDS011;23135;51.078;12.108;2023-07-16T08:48:48;1.45;;;0.20;;
37241;SDS011;23135;51.078;12.108;2023-07-16T08:51:15;2.05;;;0.20;;
37241;SDS011;23135;51.078;12.108;2023-07-16T08:53:41;4.75;;;0.40;;
37241;SDS011;23135;51.078;12.108;2023-07-16T08:56:07;2.40;;;0.10;;
37241;SDS011;23135;51.078;12.108;2023-07-16T08:58:33;1.23;;;0.10;;
37241;SDS011;23135;51.078;12.108;2023-07-16T09:01:01;4.63;;;0.20;;
37241;SDS011;23135;51.078;12.108;2023-07-16T09:03:27;2.15;;;0.30;;
37241;SDS011;23135;51.078;12.108;2023-07-16T09:05:53;4.43;;;0.13;;
37241;SDS011;23135;51.078;12.108;2023-07-16T09:08:19;6.90;;;0.20;;
37241;SDS011;23135;51.078;12.108;2023-07-16T09:10:52;2.13;;;0.20;;
37241;SDS011;23135;51.078;12.108;2023-07-16T09:13:19;1.75;;;0.22;;
37241;SDS011;23135;51.078;12.108;2023-07-16T09:15:44;4.30;;;0.40;;
37241;SDS011;23135;51.078;12.108;2023-07-16T09:18:19;3.60;;;0.10;;
37241;SDS011;23135;51.078;12.108;2023-07-16T09:20:46;4.03;;;0.25;;
37241;SDS011;23135;51.078;12.108;2023-07-16T09:23:12;1.33;;;0.20;;
37241;SDS011;23135;51.078;12.108;2023-07-16T09:25:37;3.10;;;0.45;;
37241;SDS011;23135;51.078;12.108;2023-07-16T09:28:05;1.90;;;0.05;;
37241;SDS011;23135;51.078;12.108;2023-07-16T09:30:31;4.25;;;0.30;;
37241;SDS011;23135;51.078;12.108;2023-07-16T09:33:13;2.95;;;0.63;;
37241;SDS011;23135;51.078;12.108;2023-07-16T09:35:40;2.50;;;0.20;;
37241;SDS011;23135;51.078;12.108;2023-07-16T09:38:07;2.28;;;0.10;;
37241;SDS011;23135;51.078;12.108;2023-07-16T09:40:35;4.00;;;0.10;;
37241;SDS011;23135;51.078;12.108;2023-07-16T09:43:04;5.57;;;0.40;;
37241;SDS011;23135;51.078;12.108;2023-07-16T09:45:31;3.58;;;0.10;;
37241;SDS011;23135;51.078;12.108;2023-07-16T09:47:57;1.42;;;0.30;;
37241;SDS011;23135;51.078;12.108;2023-07-16T09:50:23;5.85;;;0.47;;
37241;SDS011;23135;51.078;12.108;2023-07-16T09:52:52;8.48;;;0.13;;
37241;SDS011;23135;51.078;12.108;2023-07-16T09:55:17;3.95;;;0.20;;
37241;SDS011;23135;51.078;12.108;2023-07-16T09:57:46;2.88;;;0.15;;
37241;SDS011;23135;51.078;12.108;2023-07-16T10:00:14;1.48;;;0.10;;
37241;SDS011;23135;51.078;12.108;2023-07-16T10:02:42;12.27;;;1.48;;
37241;SDS011;23135;51.078;12.108;2023-07-16T10:05:16;3.25;;;0.93;;
37241;SDS011;23135;51.078;12.108;2023-07-16T10:07:43;2.47;;;0.43;;
37241;SDS011;23135;51.078;12.108;2023-07-16T10:10:16;2.25;;;0.30;;
37241;SDS011;23135;51.078;12.108;2023-07-16T10:12:42;2.67;;;0.30;;
37241;SDS011;23135;51.078;12.108;2023-07-16T10:15:24;1.63;;;0.05;;
37241;SDS011;23135;51.078;12.108;2023-07-16T10:17:51;0.90;;;0.08;;
37241;SDS011;23135;51.078;12.108;2023-07-16T10:20:16;4.68;;;0.10;;
37241;SDS011;23135;51.078;12.108;2023-07-16T10:22:52;3.08;;;0.30;;
37241;SDS011;23135;51.078;12.108;2023-07-16T10:27:47;2.40;;;0.10;;
37241;SDS011;23135;51.078;12.108;2023-07-16T10:30:13;1.27;;;0.10;;
37241;SDS011;23135;51.078;12.108;2023-07-16T10:32:39;1.23;;;0.10;;
37241;SDS011;23135;51.078;12.108;2023-07-16T10:35:05;0.82;;;0.10;;
37241;SDS011;23135;51.078;12.108;2023-07-16T10:37:33;2.40;;;0.30;;
37241;SDS011;23135;51.078;12.108;2023-07-16T10:40:01;9.45;;;0.30;;
37241;SDS011;23135;51.078;12.108;2023-07-16T10:42:28;2.60;;;0.10;;
37241;SDS011;23135;51.078;12.108;2023-07-16T10:44:54;5.80;;;0.32;;
37241;SDS011;23135;51.078;12.108;2023-07-16T10:47:23;2.40;;;0.40;;
37241;SDS011;23135;51.078;12.108;2023-07-16T10:49:50;1.13;;;0.20;;
37241;SDS011;23135;51.078;12.108;2023-07-16T10:52:17;4.35;;;0.10;;
37241;SDS011;23135;51.078;12.108;2023-07-16T10:54:43;2.60;;;0.20;;
37241;SDS011;23135;51.078;12.108;2023-07-16T10:57:10;7.55;;;0.68;;
37241;SDS011;23135;51.078;12.108;2023-07-16T10:59:37;5.28;;;0.38;;
37241;SDS011;23135;51.078;12.108;2023-07-16T11:02:05;4.05;;;0.30;;
37241;SDS011;23135;51.078;12.108;2023-07-16T11:04:35;1.55;;;0.10;;
37241;SDS011;23135;51.078;12.108;2023-07-16T11:07:07;1.02;;;0.15;;
37241;SDS011;23135;51.078;12.108;2023-07-16T11:09:39;4.82;;;0.88;;
37241;SDS011;23135;51.078;12.108;2023-07-16T11:12:14;0.55;;;0.05;;
37241;SDS011;23135;51.078;12.108;2023-07-16T11:14:45;1.88;;;0.75;;
37241;SDS011;23135;51.078;12.108;2023-07-16T11:17:15;2.83;;;0.10;;
37241;SDS011;23135;51.078;12.108;2023-07-16T11:19:43;5.82;;;0.20;;
37241;SDS011;23135;51.078;12.108;2023-07-16T11:22:10;2.15;;;0.30;;
37241;SDS011;23135;51.078;12.108;2023-07-16T11:24:37;5.15;;;0.30;;
37241;SDS011;23135;51.078;12.108;2023-07-16T11:27:05;2.28;;;0.45;;
37241;SDS011;23135;51.078;12.108;2023-07-16T11:29:37;0.57;;;0.30;;
37241;SDS011;23135;51.078;12.108;2023-07-16T11:32:03;3.15;;;0.20;;
37241;SDS011;23135;51.078;12.108;2023-07-16T11:34:30;3.80;;;0.30;;
37241;SDS011;23135;51.078;12.108;2023-07-16T11:36:55;4.03;;;0.75;;
37241;SDS011;23135;51.078;12.108;2023-07-16T11:39:37;5.18;;;0.52;;
37241;SDS011;23135;51.078;12.108;2023-07-16T11:42:03;2.85;;;0.13;;
37241;SDS011;23135;51.078;12.108;2023-07-16T11:44:33;1.60;;;0.20;;
37241;SDS011;23135;51.078;12.108;2023-07-16T11:46:59;3.35;;;0.20;;
37241;SDS011;23135;51.078;12.108;2023-07-16T11:49:25;3.33;;;0.30;;
37241;SDS011;23135;51.078;12.108;2023-07-16T11:51:51;0.55;;;0.35;;
37241;SDS011;23135;51.078;12.108;2023-07-16T11:54:17;0.93;;;0.22;;
37241;SDS011;23135;51.078;12.108;2023-07-16T11:56:42;2.92;;;0.47;;
37241;SDS011;23135;51.078;12.108;2023-07-16T11:59:08;4.63;;;0.63;;
37241;SDS011;23135;51.078;12.108;2023-07-16T12:01:33;1.08;;;0.28;;
37241;SDS011;23135;51.078;12.108;2023-07-16T12:03:59;2.72;;;0.38;;
37241;SDS011;23135;51.078;12.108;2023-07-16T12:06:26;3.88;;;0.40;;
37241;SDS011;23135;51.078;12.108;2023-07-16T12:08:51;7.68;;;0.40;;
37241;SDS011;23135;51.078;12.108;2023-07-16T12:11:17;1.30;;;0.22;;
37241;SDS011;23135;51.078;12.108;2023-07-16T12:13:43;4.63;;;1.20;;
37241;SDS011;23135;51.078;12.108;2023-07-16T12:16:08;4.65;;;0.55;;
37241;SDS011;23135;51.078;12.108;2023-07-16T12:18:34;3.65;;;0.88;;
37241;SDS011;23135;51.078;12.108;2023-07-16T12:20:59;3.05;;;0.32;;
37241;SDS011;23135;51.078;12.108;2023-07-16T12:23:25;5.57;;;0.85;;
37241;SDS011;23135;51.078;12.108;2023-07-16T12:25:51;7.55;;;0.85;;
37241;SDS011;23135;51.078;12.108;2023-07-16T12:28:16;7.10;;;0.90;;
37241;SDS011;23135;51.078;12.108;2023-07-16T12:30:42;3.85;;;1.00;;
37241;SDS011;23135;51.078;12.108;2023-07-16T12:33:08;1.95;;;0.40;;
37241;SDS011;23135;51.078;12.108;2023-07-16T12:35:33;3.22;;;0.57;;
37241;SDS011;23135;51.078;12.108;2023-07-16T12:37:59;3.60;;;0.38;;
37241;SDS011;23135;51.078;12.108;2023-07-16T12:40:25;2.97;;;0.50;;
37241;SDS011;23135;51.078;12.108;2023-07-16T12:42:51;4.78;;;0.70;;
37241;SDS011;23135;51.078;12.108;2023-07-16T12:45:16;2.80;;;0.60;;
37241;SDS011;23135;51.078;12.108;2023-07-16T12:47:42;2.13;;;0.57;;
37241;SDS011;23135;51.078;12.108;2023-07-16T12:50:08;1.90;;;0.50;;
37241;SDS011;23135;51.078;12.108;2023-07-16T12:52:33;2.13;;;0.40;;
37241;SDS011;23135;51.078;12.108;2023-07-16T12:54:59;2.70;;;0.70;;
37241;SDS011;23135;51.078;12.108;2023-07-16T12:57:25;5.00;;;1.02;;
37241;SDS011;23135;51.078;12.108;2023-07-16T12:59:50;2.50;;;0.55;;
37241;SDS011;23135;51.078;12.108;2023-07-16T13:02:16;3.10;;;0.63;;
37241;SDS011;23135;51.078;12.108;2023-07-16T13:04:41;3.55;;;1.08;;
37241;SDS011;23135;51.078;12.108;2023-07-16T13:07:07;8.18;;;1.13;;
37241;SDS011;23135;51.078;12.108;2023-07-16T13:09:33;2.08;;;0.98;;
37241;SDS011;23135;51.078;12.108;2023-07-16T13:11:59;1.98;;;0.63;;
37241;SDS011;23135;51.078;12.108;2023-07-16T13:14:24;3.45;;;0.50;;
37241;SDS011;23135;51.078;12.108;2023-07-16T13:16:51;1.92;;;0.50;;
37241;SDS011;23135;51.078;12.108;2023-07-16T13:19:16;2.72;;;1.02;;
37241;SDS011;23135;51.078;12.108;2023-07-16T13:21:42;5.18;;;0.80;;
37241;SDS011;23135;51.078;12.108;2023-07-16T13:24:07;4.35;;;0.68;;
37241;SDS011;23135;51.078;12.108;2023-07-16T13:26:33;1.38;;;0.60;;
37241;SDS011;23135;51.078;12.108;2023-07-16T13:28:59;8.50;;;1.40;;
37241;SDS011;23135;51.078;12.108;2023-07-16T13:31:24;3.17;;;0.80;;
37241;SDS011;23135;51.078;12.108;2023-07-16T13:33:50;4.53;;;0.30;;
37241;SDS011;23135;51.078;12.108;2023-07-16T13:36:15;5.13;;;0.70;;
37241;SDS011;23135;51.078;12.108;2023-07-16T13:38:41;6.22;;;0.75;;
37241;SDS011;23135;51.078;12.108;2023-07-16T13:41:06;2.95;;;0.90;;
37241;SDS011;23135;51.078;12.108;2023-07-16T13:43:32;3.08;;;0.47;;
37241;SDS011;23135;51.078;12.108;2023-07-16T13:45:58;3.10;;;0.93;;
37241;SDS011;23135;51.078;12.108;2023-07-16T13:48:23;2.22;;;0.80;;
37241;SDS011;23135;51.078;12.108;2023-07-16T13:50:49;1.67;;;0.45;;
37241;SDS011;23135;51.078;12.108;2023-07-16T13:53:14;3.42;;;0.98;;
37241;SDS011;23135;51.078;12.108;2023-07-16T13:55:40;3.85;;;1.23;;
37241;SDS011;23135;51.078;12.108;2023-07-16T13:58:06;3.17;;;0.60;;
37241;SDS011;23135;51.078;12.108;2023-07-16T14:00:31;2.45;;;0.90;;
37241;SDS011;23135;51.078;12.108;2023-07-16T14:02:57;4.45;;;1.23;;
37241;SDS011;23135;51.078;12.108;2023-07-16T14:05:22;5.75;;;0.73;;
37241;SDS011;23135;51.078;12.108;2023-07-16T14:07:48;1.52;;;0.90;;
37241;SDS011;23135;51.078;12.108;2023-07-16T14:10:15;4.45;;;1.13;;
37241;SDS011;23135;51.078;12.108;2023-07-16T14:12:41;4.00;;;0.98;;
37241;SDS011;23135;51.078;12.108;2023-07-16T14:15:07;3.63;;;0.90;;
37241;SDS011;23135;51.078;12.108;2023-07-16T14:17:32;5.68;;;0.80;;
37241;SDS011;23135;51.078;12.108;2023-07-16T14:19:58;2.30;;;0.50;;
37241;SDS011;23135;51.078;12.108;2023-07-16T14:22:24;5.75;;;0.82;;
37241;SDS011;23135;51.078;12.108;2023-07-16T14:24:52;2.78;;;0.70;;
37241;SDS011;23135;51.078;12.108;2023-07-16T14:27:18;3.80;;;1.73;;
37241;SDS011;23135;51.078;12.108;2023-07-16T14:29:45;2.45;;;0.40;;
37241;SDS011;23135;51.078;12.108;2023-07-16T14:32:11;2.05;;;1.13;;
37241;SDS011;23135;51.078;12.108;2023-07-16T14:34:38;2.20;;;0.55;;
37241;SDS011;23135;51.078;12.108;2023-07-16T14:37:03;2.80;;;1.02;;